sensor_id;sensor_type;location;lat;lon;timestamp;temperature;humidity
7331;DHT22;3706;49.198;7.064;2022-12-07T00:01:27;3.50;99.90
7331;DHT22;3706;49.198;7.064;2022-12-07T00:03:56;3.50;99.90
7331;DHT22;3706;49.198;7.064;2022-12-07T00:06:30;3.50;99.90
7331;DHT22;3706;49.198;7.064;2022-12-07T00:08:58;3.40;99.90
7331;DHT22;3706;49.198;7.064;2022-12-07T00:11:25;3.30;99.90
7331;DHT22;3706;49.198;7.064;2022-12-07T00:13:53;3.20;99.90
7331;DHT22;3706;49.198;7.064;2022-12-07T00:16:25;3.20;99.90
7331;DHT22;3706;49.198;7.064;2022-12-07T00:18:52;3.20;99.90
7331;DHT22;3706;49.198;7.064;2022-12-07T00:21:21;3.20;99.90
7331;DHT22;3706;49.198;7.064;2022-12-07T00:23:51;3.30;99.90
7331;DHT22;3706;49.198;7.064;2022-12-07T00:26:19;3.30;99.90
7331;DHT22;3706;49.198;7.064;2022-12-07T00:28:47;3.30;99.90
7331;DHT22;3706;49.198;7.064;2022-12-07T00:31:16;3.30;99.90
7331;DHT22;3706;49.198;7.064;2022-12-07T00:33:43;3.30;99.90
7331;DHT22;3706;49.198;7.064;2022-12-07T00:36:14;3.30;99.90
7331;DHT22;3706;49.198;7.064;2022-12-07T00:38:41;3.30;99.90
7331;DHT22;3706;49.198;7.064;2022-12-07T00:41:12;3.30;99.90
7331;DHT22;3706;49.198;7.064;2022-12-07T00:43:40;3.30;99.90
7331;DHT22;3706;49.198;7.064;2022-12-07T00:46:08;3.30;99.90
7331;DHT22;3706;49.198;7.064;2022-12-07T00:48:35;3.30;99.90
7331;DHT22;3706;49.198;7.064;2022-12-07T00:51:03;3.30;99.90
7331;DHT22;3706;49.198;7.064;2022-12-07T00:53:30;3.30;99.90
7331;DHT22;3706;49.198;7.064;2022-12-07T00:55:57;3.30;99.90
7331;DHT22;3706;49.198;7.064;2022-12-07T00:58:25;3.30;99.90
7331;DHT22;3706;49.198;7.064;2022-12-07T01:00:52;3.20;99.90
7331;DHT22;3706;49.198;7.064;2022-12-07T01:03:19;3.20;99.90
7331;DHT22;3706;49.198;7.064;2022-12-07T01:05:50;3.10;99.90
7331;DHT22;3706;49.198;7.064;2022-12-07T01:08:17;3.10;99.90
7331;DHT22;3706;49.198;7.064;2022-12-07T01:10:44;3.10;99.90
7331;DHT22;3706;49.198;7.064;2022-12-07T01:13:12;3.10;99.90
7331;DHT22;3706;49.198;7.064;2022-12-07T01:15:41;3.10;99.90
7331;DHT22;3706;49.198;7.064;2022-12-07T01:18:08;3.00;99.90
7331;DHT22;3706;49.198;7.064;2022-12-07T01:20:35;3.10;99.90
7331;DHT22;3706;49.198;7.064;2022-12-07T01:23:02;3.10;99.90
7331;DHT22;3706;49.198;7.064;2022-12-07T01:25:29;3.10;99.90
7331;DHT22;3706;49.198;7.064;2022-12-07T01:27:56;3.10;99.90
7331;DHT22;3706;49.198;7.064;2022-12-07T01:30:23;3.10;99.90
7331;DHT22;3706;49.198;7.064;2022-12-07T01:32:52;3.00;99.90
7331;DHT22;3706;49.198;7.064;2022-12-07T01:35:18;3.00;99.90
7331;DHT22;3706;49.198;7.064;2022-12-07T01:37:45;3.00;99.90
7331;DHT22;3706;49.198;7.064;2022-12-07T01:40:13;2.90;99.90
7331;DHT22;3706;49.198;7.064;2022-12-07T01:42:39;2.80;99.90
7331;DHT22;3706;49.198;7.064;2022-12-07T01:48:15;2.60;99.90
7331;DHT22;3706;49.198;7.064;2022-12-07T01:50:46;2.50;99.90
7331;DHT22;3706;49.198;7.064;2022-12-07T01:53:16;2.50;99.90
7331;DHT22;3706;49.198;7.064;2022-12-07T01:55:45;2.40;99.90
7331;DHT22;3706;49.198;7.064;2022-12-07T01:58:15;2.50;99.90
7331;DHT22;3706;49.198;7.064;2022-12-07T02:00:43;2.50;99.90
7331;DHT22;3706;49.198;7.064;2022-12-07T02:03:14;2.50;99.90
7331;DHT22;3706;49.198;7.064;2022-12-07T02:05:43;2.50;99.90
7331;DHT22;3706;49.198;7.064;2022-12-07T02:08:12;2.70;99.90
7331;DHT22;3706;49.198;7.064;2022-12-07T02:10:39;2.70;99.90
7331;DHT22;3706;49.198;7.064;2022-12-07T02:13:10;2.80;99.90
7331;DHT22;3706;49.198;7.064;2022-12-07T02:15:53;2.90;99.90
7331;DHT22;3706;49.198;7.064;2022-12-07T02:18:33;2.80;99.90
7331;DHT22;3706;49.198;7.064;2022-12-07T02:21:07;2.80;99.90
7331;DHT22;3706;49.198;7.064;2022-12-07T02:23:41;2.70;99.90
7331;DHT22;3706;49.198;7.064;2022-12-07T02:26:53;2.60;99.90
7331;DHT22;3706;49.198;7.064;2022-12-07T02:29:25;2.40;99.90
7331;DHT22;3706;49.198;7.064;2022-12-07T02:31:59;2.40;99.90
7331;DHT22;3706;49.198;7.064;2022-12-07T02:34:36;2.40;99.90
7331;DHT22;3706;49.198;7.064;2022-12-07T02:37:12;2.60;99.90
7331;DHT22;3706;49.198;7.064;2022-12-07T02:39:44;2.60;99.90
7331;DHT22;3706;49.198;7.064;2022-12-07T02:42:16;2.60;99.90
7331;DHT22;3706;49.198;7.064;2022-12-07T02:44:46;2.70;99.90
7331;DHT22;3706;49.198;7.064;2022-12-07T02:47:17;2.70;99.90
7331;DHT22;3706;49.198;7.064;2022-12-07T02:49:45;2.80;99.90
7331;DHT22;3706;49.198;7.064;2022-12-07T02:52:13;2.90;99.90
7331;DHT22;3706;49.198;7.064;2022-12-07T02:54:39;2.90;99.90
7331;DHT22;3706;49.198;7.064;2022-12-07T02:57:18;2.90;99.90
7331;DHT22;3706;49.198;7.064;2022-12-07T03:00:00;3.00;99.90
7331;DHT22;3706;49.198;7.064;2022-12-07T03:02:35;3.00;99.90
7331;DHT22;3706;49.198;7.064;2022-12-07T03:05:13;3.00;99.90
7331;DHT22;3706;49.198;7.064;2022-12-07T03:07:48;3.00;99.90
7331;DHT22;3706;49.198;7.064;2022-12-07T03:10:19;3.00;99.90
7331;DHT22;3706;49.198;7.064;2022-12-07T03:12:55;2.90;99.90
7331;DHT22;3706;49.198;7.064;2022-12-07T03:15:29;2.90;99.90
7331;DHT22;3706;49.198;7.064;2022-12-07T03:18:00;2.70;99.90
7331;DHT22;3706;49.198;7.064;2022-12-07T03:20:29;2.60;99.90
7331;DHT22;3706;49.198;7.064;2022-12-07T03:22:57;2.60;99.90
7331;DHT22;3706;49.198;7.064;2022-12-07T03:25:24;2.60;99.90
7331;DHT22;3706;49.198;7.064;2022-12-07T03:27:54;2.70;99.90
7331;DHT22;3706;49.198;7.064;2022-12-07T03:30:26;2.80;99.90
7331;DHT22;3706;49.198;7.064;2022-12-07T03:32:57;2.90;99.90
7331;DHT22;3706;49.198;7.064;2022-12-07T03:35:28;3.00;99.90
7331;DHT22;3706;49.198;7.064;2022-12-07T03:37:58;3.10;99.90
7331;DHT22;3706;49.198;7.064;2022-12-07T03:40:29;3.20;99.90
7331;DHT22;3706;49.198;7.064;2022-12-07T03:42:58;3.20;99.90
7331;DHT22;3706;49.198;7.064;2022-12-07T03:45:32;3.20;99.90
7331;DHT22;3706;49.198;7.064;2022-12-07T03:48:07;3.10;99.90
7331;DHT22;3706;49.198;7.064;2022-12-07T03:50:42;3.00;99.90
7331;DHT22;3706;49.198;7.064;2022-12-07T03:53:13;2.90;99.90
7331;DHT22;3706;49.198;7.064;2022-12-07T03:55:43;2.80;99.90
7331;DHT22;3706;49.198;7.064;2022-12-07T03:58:13;2.90;99.90
7331;DHT22;3706;49.198;7.064;2022-12-07T04:00:44;2.90;99.90
7331;DHT22;3706;49.198;7.064;2022-12-07T04:03:11;3.00;99.90
7331;DHT22;3706;49.198;7.064;2022-12-07T04:05:39;3.00;99.90
7331;DHT22;3706;49.198;7.064;2022-12-07T04:08:06;2.90;99.90
7331;DHT22;3706;49.198;7.064;2022-12-07T04:10:33;3.00;99.90
7331;DHT22;3706;49.198;7.064;2022-12-07T04:13:00;3.10;99.90
7331;DHT22;3706;49.198;7.064;2022-12-07T04:15:27;3.10;99.90
7331;DHT22;3706;49.198;7.064;2022-12-07T04:17:55;3.30;99.90
7331;DHT22;3706;49.198;7.064;2022-12-07T04:20:22;3.30;99.90
7331;DHT22;3706;49.198;7.064;2022-12-07T04:22:49;3.30;99.90
7331;DHT22;3706;49.198;7.064;2022-12-07T04:25:16;3.30;99.90
7331;DHT22;3706;49.198;7.064;2022-12-07T04:27:43;3.30;99.90
7331;DHT22;3706;49.198;7.064;2022-12-07T04:30:10;3.30;99.90
7331;DHT22;3706;49.198;7.064;2022-12-07T04:32:37;3.30;99.90
7331;DHT22;3706;49.198;7.064;2022-12-07T04:35:06;3.20;99.90
7331;DHT22;3706;49.198;7.064;2022-12-07T04:37:33;3.30;99.90
7331;DHT22;3706;49.198;7.064;2022-12-07T04:40:00;3.30;99.90
7331;DHT22;3706;49.198;7.064;2022-12-07T04:42:27;3.20;99.90
7331;DHT22;3706;49.198;7.064;2022-12-07T04:44:54;3.10;99.90
7331;DHT22;3706;49.198;7.064;2022-12-07T04:47:21;3.10;99.90
7331;DHT22;3706;49.198;7.064;2022-12-07T04:49:48;3.10;99.90
7331;DHT22;3706;49.198;7.064;2022-12-07T04:52:16;3.10;99.90
7331;DHT22;3706;49.198;7.064;2022-12-07T04:54:43;3.10;99.90
7331;DHT22;3706;49.198;7.064;2022-12-07T04:57:10;3.10;99.90
7331;DHT22;3706;49.198;7.064;2022-12-07T04:59:37;3.10;99.90
7331;DHT22;3706;49.198;7.064;2022-12-07T05:02:03;3.00;99.90
7331;DHT22;3706;49.198;7.064;2022-12-07T05:04:30;3.00;99.90
7331;DHT22;3706;49.198;7.064;2022-12-07T05:06:57;2.90;99.90
7331;DHT22;3706;49.198;7.064;2022-12-07T05:09:25;2.80;99.90
7331;DHT22;3706;49.198;7.064;2022-12-07T05:11:52;2.80;99.90
7331;DHT22;3706;49.198;7.064;2022-12-07T05:14:20;2.90;99.90
7331;DHT22;3706;49.198;7.064;2022-12-07T05:16:49;3.00;99.90
7331;DHT22;3706;49.198;7.064;2022-12-07T05:19:16;2.90;99.90
7331;DHT22;3706;49.198;7.064;2022-12-07T05:21:44;2.80;99.90
7331;DHT22;3706;49.198;7.064;2022-12-07T05:24:12;2.80;99.90
7331;DHT22;3706;49.198;7.064;2022-12-07T05:26:41;2.80;99.90
7331;DHT22;3706;49.198;7.064;2022-12-07T05:29:11;2.70;99.90
7331;DHT22;3706;49.198;7.064;2022-12-07T05:31:39;2.70;99.90
7331;DHT22;3706;49.198;7.064;2022-12-07T05:34:05;2.60;99.90
7331;DHT22;3706;49.198;7.064;2022-12-07T05:36:33;2.50;99.90
7331;DHT22;3706;49.198;7.064;2022-12-07T05:38:59;2.50;99.90
7331;DHT22;3706;49.198;7.064;2022-12-07T05:41:26;2.40;99.90
7331;DHT22;3706;49.198;7.064;2022-12-07T05:44:12;2.40;99.90
7331;DHT22;3706;49.198;7.064;2022-12-07T05:46:39;2.40;99.90
7331;DHT22;3706;49.198;7.064;2022-12-07T05:49:06;2.60;99.90
7331;DHT22;3706;49.198;7.064;2022-12-07T05:51:33;2.70;99.90
7331;DHT22;3706;49.198;7.064;2022-12-07T05:53:59;2.70;99.90
7331;DHT22;3706;49.198;7.064;2022-12-07T05:56:26;2.90;99.90
7331;DHT22;3706;49.198;7.064;2022-12-07T05:58:53;2.90;99.90
7331;DHT22;3706;49.198;7.064;2022-12-07T06:01:39;3.00;99.90
7331;DHT22;3706;49.198;7.064;2022-12-07T06:04:06;3.10;99.90
7331;DHT22;3706;49.198;7.064;2022-12-07T06:06:33;3.20;99.90
7331;DHT22;3706;49.198;7.064;2022-12-07T06:09:01;3.20;99.90
7331;DHT22;3706;49.198;7.064;2022-12-07T06:11:28;3.30;99.90
7331;DHT22;3706;49.198;7.064;2022-12-07T06:14:12;3.30;99.90
7331;DHT22;3706;49.198;7.064;2022-12-07T06:16:40;3.30;99.90
7331;DHT22;3706;49.198;7.064;2022-12-07T06:19:07;3.30;99.90
7331;DHT22;3706;49.198;7.064;2022-12-07T06:21:34;3.40;99.90
7331;DHT22;3706;49.198;7.064;2022-12-07T06:24:01;3.40;99.90
7331;DHT22;3706;49.198;7.064;2022-12-07T06:26:28;3.40;99.90
7331;DHT22;3706;49.198;7.064;2022-12-07T06:28:55;3.40;99.90
7331;DHT22;3706;49.198;7.064;2022-12-07T06:31:22;3.40;99.90
7331;DHT22;3706;49.198;7.064;2022-12-07T06:33:50;3.40;99.90
7331;DHT22;3706;49.198;7.064;2022-12-07T06:36:17;3.40;99.90
7331;DHT22;3706;49.198;7.064;2022-12-07T06:38:44;3.40;99.90
7331;DHT22;3706;49.198;7.064;2022-12-07T06:41:11;3.40;99.90
7331;DHT22;3706;49.198;7.064;2022-12-07T06:43:38;3.40;99.90
7331;DHT22;3706;49.198;7.064;2022-12-07T06:46:05;3.50;99.90
7331;DHT22;3706;49.198;7.064;2022-12-07T06:48:32;3.50;99.90
7331;DHT22;3706;49.198;7.064;2022-12-07T06:51:00;3.60;99.90
7331;DHT22;3706;49.198;7.064;2022-12-07T06:53:27;3.60;99.90
7331;DHT22;3706;49.198;7.064;2022-12-07T06:55:54;3.60;99.90
7331;DHT22;3706;49.198;7.064;2022-12-07T06:58:21;3.60;99.90
7331;DHT22;3706;49.198;7.064;2022-12-07T07:00:48;3.60;99.90
7331;DHT22;3706;49.198;7.064;2022-12-07T07:03:15;3.60;99.90
7331;DHT22;3706;49.198;7.064;2022-12-07T07:05:43;3.60;99.90
7331;DHT22;3706;49.198;7.064;2022-12-07T07:08:12;3.50;99.90
7331;DHT22;3706;49.198;7.064;2022-12-07T07:10:39;3.40;99.90
7331;DHT22;3706;49.198;7.064;2022-12-07T07:13:06;3.40;99.90
7331;DHT22;3706;49.198;7.064;2022-12-07T07:15:34;3.30;99.90
7331;DHT22;3706;49.198;7.064;2022-12-07T07:18:01;3.30;99.90
7331;DHT22;3706;49.198;7.064;2022-12-07T07:20:28;3.30;99.90
7331;DHT22;3706;49.198;7.064;2022-12-07T07:22:55;3.30;99.90
7331;DHT22;3706;49.198;7.064;2022-12-07T07:25:24;3.40;99.90
7331;DHT22;3706;49.198;7.064;2022-12-07T07:27:50;3.40;99.90
7331;DHT22;3706;49.198;7.064;2022-12-07T07:30:17;3.50;99.90
7331;DHT22;3706;49.198;7.064;2022-12-07T07:32:44;3.50;99.90
7331;DHT22;3706;49.198;7.064;2022-12-07T07:35:11;3.50;99.90
7331;DHT22;3706;49.198;7.064;2022-12-07T07:37:39;3.50;99.90
7331;DHT22;3706;49.198;7.064;2022-12-07T07:40:07;3.50;99.90
7331;DHT22;3706;49.198;7.064;2022-12-07T07:42:35;3.40;99.90
7331;DHT22;3706;49.198;7.064;2022-12-07T07:45:03;3.30;99.90
7331;DHT22;3706;49.198;7.064;2022-12-07T07:47:30;3.30;99.90
7331;DHT22;3706;49.198;7.064;2022-12-07T07:49:57;3.40;99.90
7331;DHT22;3706;49.198;7.064;2022-12-07T07:52:24;3.50;99.90
7331;DHT22;3706;49.198;7.064;2022-12-07T07:54:51;3.70;99.90
7331;DHT22;3706;49.198;7.064;2022-12-07T07:57:18;3.70;99.90
7331;DHT22;3706;49.198;7.064;2022-12-07T07:59:46;3.80;99.90
7331;DHT22;3706;49.198;7.064;2022-12-07T08:02:14;3.80;99.90
7331;DHT22;3706;49.198;7.064;2022-12-07T08:04:42;3.90;99.90
7331;DHT22;3706;49.198;7.064;2022-12-07T08:07:09;3.90;99.90
7331;DHT22;3706;49.198;7.064;2022-12-07T08:09:38;3.90;99.90
7331;DHT22;3706;49.198;7.064;2022-12-07T08:12:05;3.90;99.90
7331;DHT22;3706;49.198;7.064;2022-12-07T08:14:32;3.90;99.90
7331;DHT22;3706;49.198;7.064;2022-12-07T08:17:01;3.80;99.90
7331;DHT22;3706;49.198;7.064;2022-12-07T08:19:28;3.80;99.90
7331;DHT22;3706;49.198;7.064;2022-12-07T08:21:55;3.70;99.90
7331;DHT22;3706;49.198;7.064;2022-12-07T08:24:22;3.80;99.90
7331;DHT22;3706;49.198;7.064;2022-12-07T08:26:50;3.70;99.90
7331;DHT22;3706;49.198;7.064;2022-12-07T08:29:18;3.60;99.90
7331;DHT22;3706;49.198;7.064;2022-12-07T08:31:45;3.60;99.90
7331;DHT22;3706;49.198;7.064;2022-12-07T08:34:13;3.70;99.90
7331;DHT22;3706;49.198;7.064;2022-12-07T08:36:40;3.80;99.90
7331;DHT22;3706;49.198;7.064;2022-12-07T08:39:07;3.80;99.90
7331;DHT22;3706;49.198;7.064;2022-12-07T08:41:34;3.90;99.90
7331;DHT22;3706;49.198;7.064;2022-12-07T08:44:01;4.00;99.90
7331;DHT22;3706;49.198;7.064;2022-12-07T08:46:31;4.10;99.90
7331;DHT22;3706;49.198;7.064;2022-12-07T08:49:04;4.40;99.90
7331;DHT22;3706;49.198;7.064;2022-12-07T08:51:33;4.40;99.90
7331;DHT22;3706;49.198;7.064;2022-12-07T08:54:02;4.40;99.90
7331;DHT22;3706;49.198;7.064;2022-12-07T08:56:30;4.50;99.90
7331;DHT22;3706;49.198;7.064;2022-12-07T08:58:58;4.60;99.90
7331;DHT22;3706;49.198;7.064;2022-12-07T09:01:25;4.70;99.90
7331;DHT22;3706;49.198;7.064;2022-12-07T09:03:52;4.60;99.90
7331;DHT22;3706;49.198;7.064;2022-12-07T09:06:19;4.60;99.90
7331;DHT22;3706;49.198;7.064;2022-12-07T09:08:51;4.70;99.90
7331;DHT22;3706;49.198;7.064;2022-12-07T09:11:19;4.70;99.90
7331;DHT22;3706;49.198;7.064;2022-12-07T09:13:46;4.70;99.90
7331;DHT22;3706;49.198;7.064;2022-12-07T09:16:13;4.80;99.90
7331;DHT22;3706;49.198;7.064;2022-12-07T09:18:40;4.90;99.90
7331;DHT22;3706;49.198;7.064;2022-12-07T09:21:07;4.90;99.90
7331;DHT22;3706;49.198;7.064;2022-12-07T09:23:34;4.90;99.90
7331;DHT22;3706;49.198;7.064;2022-12-07T09:26:03;4.90;99.90
7331;DHT22;3706;49.198;7.064;2022-12-07T09:28:31;4.90;99.90
7331;DHT22;3706;49.198;7.064;2022-12-07T09:30:58;4.90;99.90
7331;DHT22;3706;49.198;7.064;2022-12-07T09:33:25;4.90;99.90
7331;DHT22;3706;49.198;7.064;2022-12-07T09:35:52;4.90;99.90
7331;DHT22;3706;49.198;7.064;2022-12-07T09:38:19;5.00;99.90
7331;DHT22;3706;49.198;7.064;2022-12-07T09:40:47;5.20;99.90
7331;DHT22;3706;49.198;7.064;2022-12-07T09:43:18;5.30;99.90
7331;DHT22;3706;49.198;7.064;2022-12-07T09:45:48;5.50;99.90
7331;DHT22;3706;49.198;7.064;2022-12-07T09:48:17;5.50;99.90
7331;DHT22;3706;49.198;7.064;2022-12-07T09:50:46;5.50;99.90
7331;DHT22;3706;49.198;7.064;2022-12-07T09:53:19;5.60;99.90
7331;DHT22;3706;49.198;7.064;2022-12-07T09:55:47;5.60;99.90
7331;DHT22;3706;49.198;7.064;2022-12-07T09:58:22;5.50;99.90
7331;DHT22;3706;49.198;7.064;2022-12-07T10:00:51;5.50;99.90
7331;DHT22;3706;49.198;7.064;2022-12-07T10:03:20;5.50;99.90
7331;DHT22;3706;49.198;7.064;2022-12-07T10:05:50;5.40;99.90
7331;DHT22;3706;49.198;7.064;2022-12-07T10:08:17;5.40;99.90
7331;DHT22;3706;49.198;7.064;2022-12-07T10:10:45;5.40;99.90
7331;DHT22;3706;49.198;7.064;2022-12-07T10:13:14;5.30;99.90
7331;DHT22;3706;49.198;7.064;2022-12-07T10:15:48;5.30;99.90
7331;DHT22;3706;49.198;7.064;2022-12-07T10:18:20;5.40;99.90
7331;DHT22;3706;49.198;7.064;2022-12-07T10:20:48;5.40;99.90
7331;DHT22;3706;49.198;7.064;2022-12-07T10:23:17;5.40;99.90
7331;DHT22;3706;49.198;7.064;2022-12-07T10:25:45;5.40;99.90
7331;DHT22;3706;49.198;7.064;2022-12-07T10:28:15;5.50;99.90
7331;DHT22;3706;49.198;7.064;2022-12-07T10:30:50;5.60;99.90
7331;DHT22;3706;49.198;7.064;2022-12-07T10:33:38;5.70;99.90
7331;DHT22;3706;49.198;7.064;2022-12-07T10:36:18;5.80;99.90
7331;DHT22;3706;49.198;7.064;2022-12-07T10:38:48;5.90;99.90
7331;DHT22;3706;49.198;7.064;2022-12-07T10:41:15;6.00;99.90
7331;DHT22;3706;49.198;7.064;2022-12-07T10:43:50;6.10;99.90
7331;DHT22;3706;49.198;7.064;2022-12-07T10:52:10;6.00;99.90
7331;DHT22;3706;49.198;7.064;2022-12-07T10:54:47;6.00;99.90
7331;DHT22;3706;49.198;7.064;2022-12-07T10:57:31;5.90;99.90
7331;DHT22;3706;49.198;7.064;2022-12-07T11:00:06;5.80;99.90
7331;DHT22;3706;49.198;7.064;2022-12-07T11:02:53;5.80;99.90
7331;DHT22;3706;49.198;7.064;2022-12-07T11:05:27;5.80;99.90
7331;DHT22;3706;49.198;7.064;2022-12-07T11:08:04;6.00;99.90
7331;DHT22;3706;49.198;7.064;2022-12-07T11:10:42;6.00;99.90
7331;DHT22;3706;49.198;7.064;2022-12-07T11:13:25;5.90;99.90
7331;DHT22;3706;49.198;7.064;2022-12-07T11:16:07;6.00;99.90
7331;DHT22;3706;49.198;7.064;2022-12-07T11:18:45;6.20;99.90
7331;DHT22;3706;49.198;7.064;2022-12-07T11:21:20;6.20;99.90
7331;DHT22;3706;49.198;7.064;2022-12-07T11:23:56;6.20;99.90
7331;DHT22;3706;49.198;7.064;2022-12-07T11:26:38;6.30;99.90
7331;DHT22;3706;49.198;7.064;2022-12-07T11:29:22;6.20;99.90
7331;DHT22;3706;49.198;7.064;2022-12-07T11:32:01;6.20;99.90
7331;DHT22;3706;49.198;7.064;2022-12-07T11:34:39;6.10;99.90
7331;DHT22;3706;49.198;7.064;2022-12-07T11:37:13;6.20;99.90
7331;DHT22;3706;49.198;7.064;2022-12-07T11:39:48;6.20;99.90
7331;DHT22;3706;49.198;7.064;2022-12-07T11:42:22;6.10;99.90
7331;DHT22;3706;49.198;7.064;2022-12-07T11:44:53;6.00;99.90
7331;DHT22;3706;49.198;7.064;2022-12-07T11:47:25;5.90;99.90
7331;DHT22;3706;49.198;7.064;2022-12-07T11:49:58;5.90;99.90
7331;DHT22;3706;49.198;7.064;2022-12-07T11:52:32;6.00;99.90
7331;DHT22;3706;49.198;7.064;2022-12-07T11:55:05;5.90;99.90
7331;DHT22;3706;49.198;7.064;2022-12-07T11:57:44;6.00;99.90
7331;DHT22;3706;49.198;7.064;2022-12-07T12:00:15;5.90;99.90
7331;DHT22;3706;49.198;7.064;2022-12-07T12:02:48;5.90;99.90
7331;DHT22;3706;49.198;7.064;2022-12-07T12:05:22;5.90;99.90
7331;DHT22;3706;49.198;7.064;2022-12-07T12:07:54;5.90;99.90
7331;DHT22;3706;49.198;7.064;2022-12-07T12:10:33;5.90;99.90
7331;DHT22;3706;49.198;7.064;2022-12-07T12:13:14;6.00;99.90
7331;DHT22;3706;49.198;7.064;2022-12-07T12:15:59;5.90;99.90
7331;DHT22;3706;49.198;7.064;2022-12-07T12:18:46;6.10;99.90
7331;DHT22;3706;49.198;7.064;2022-12-07T12:21:20;5.90;99.90
7331;DHT22;3706;49.198;7.064;2022-12-07T12:23:52;6.00;99.90
7331;DHT22;3706;49.198;7.064;2022-12-07T12:26:24;5.90;99.90
7331;DHT22;3706;49.198;7.064;2022-12-07T12:28:55;5.80;99.90
7331;DHT22;3706;49.198;7.064;2022-12-07T12:31:36;5.70;99.90
7331;DHT22;3706;49.198;7.064;2022-12-07T12:34:33;5.60;99.90
7331;DHT22;3706;49.198;7.064;2022-12-07T12:37:00;5.60;99.90
7331;DHT22;3706;49.198;7.064;2022-12-07T12:39:27;5.50;99.90
7331;DHT22;3706;49.198;7.064;2022-12-07T12:42:00;5.50;99.90
7331;DHT22;3706;49.198;7.064;2022-12-07T12:45:05;5.50;99.90
7331;DHT22;3706;49.198;7.064;2022-12-07T12:47:56;5.50;99.90
7331;DHT22;3706;49.198;7.064;2022-12-07T12:50:27;5.40;99.90
7331;DHT22;3706;49.198;7.064;2022-12-07T12:53:04;5.40;99.90
7331;DHT22;3706;49.198;7.064;2022-12-07T12:55:54;5.40;99.90
7331;DHT22;3706;49.198;7.064;2022-12-07T12:58:38;5.50;99.90
7331;DHT22;3706;49.198;7.064;2022-12-07T13:04:28;5.40;99.90
7331;DHT22;3706;49.198;7.064;2022-12-07T13:06:58;5.50;99.90
7331;DHT22;3706;49.198;7.064;2022-12-07T13:09:28;5.50;99.90
7331;DHT22;3706;49.198;7.064;2022-12-07T13:12:00;5.50;99.90
7331;DHT22;3706;49.198;7.064;2022-12-07T13:14:43;5.50;99.90
7331;DHT22;3706;49.198;7.064;2022-12-07T13:17:10;5.40;99.90
7331;DHT22;3706;49.198;7.064;2022-12-07T13:19:58;5.40;99.90
7331;DHT22;3706;49.198;7.064;2022-12-07T13:22:49;5.40;99.90
7331;DHT22;3706;49.198;7.064;2022-12-07T13:25:38;5.30;99.90
7331;DHT22;3706;49.198;7.064;2022-12-07T13:28:14;5.30;99.90
7331;DHT22;3706;49.198;7.064;2022-12-07T13:30:47;5.40;99.90
7331;DHT22;3706;49.198;7.064;2022-12-07T13:33:15;5.30;99.90
7331;DHT22;3706;49.198;7.064;2022-12-07T13:35:44;5.30;99.90
7331;DHT22;3706;49.198;7.064;2022-12-07T13:38:25;5.30;99.90
7331;DHT22;3706;49.198;7.064;2022-12-07T13:41:12;5.40;99.90
7331;DHT22;3706;49.198;7.064;2022-12-07T13:43:44;5.30;99.90
7331;DHT22;3706;49.198;7.064;2022-12-07T13:46:12;5.30;99.90
7331;DHT22;3706;49.198;7.064;2022-12-07T13:48:45;5.30;99.90
7331;DHT22;3706;49.198;7.064;2022-12-07T13:51:21;5.40;99.90
7331;DHT22;3706;49.198;7.064;2022-12-07T13:53:52;5.40;99.90
7331;DHT22;3706;49.198;7.064;2022-12-07T13:56:22;5.40;99.90
7331;DHT22;3706;49.198;7.064;2022-12-07T13:58:49;5.30;99.90
7331;DHT22;3706;49.198;7.064;2022-12-07T14:01:16;5.20;99.90
7331;DHT22;3706;49.198;7.064;2022-12-07T14:03:43;5.10;99.90
7331;DHT22;3706;49.198;7.064;2022-12-07T14:06:23;5.10;99.90
7331;DHT22;3706;49.198;7.064;2022-12-07T14:09:17;5.10;99.90
7331;DHT22;3706;49.198;7.064;2022-12-07T14:11:45;5.10;99.90
7331;DHT22;3706;49.198;7.064;2022-12-07T14:14:16;5.10;99.90
7331;DHT22;3706;49.198;7.064;2022-12-07T14:16:55;5.10;99.90
7331;DHT22;3706;49.198;7.064;2022-12-07T14:19:42;5.10;99.90
7331;DHT22;3706;49.198;7.064;2022-12-07T14:22:20;5.10;99.90
7331;DHT22;3706;49.198;7.064;2022-12-07T14:24:49;5.10;99.90
7331;DHT22;3706;49.198;7.064;2022-12-07T14:27:18;5.10;99.90
7331;DHT22;3706;49.198;7.064;2022-12-07T14:29:45;5.20;99.90
7331;DHT22;3706;49.198;7.064;2022-12-07T14:32:24;5.10;99.90
7331;DHT22;3706;49.198;7.064;2022-12-07T14:34:59;5.00;99.90
7331;DHT22;3706;49.198;7.064;2022-12-07T14:37:27;5.00;99.90
7331;DHT22;3706;49.198;7.064;2022-12-07T14:39:57;5.00;99.90
7331;DHT22;3706;49.198;7.064;2022-12-07T14:42:26;4.90;99.90
7331;DHT22;3706;49.198;7.064;2022-12-07T14:44:54;4.90;99.90
7331;DHT22;3706;49.198;7.064;2022-12-07T14:47:21;5.00;99.90
7331;DHT22;3706;49.198;7.064;2022-12-07T14:49:48;5.00;99.90
7331;DHT22;3706;49.198;7.064;2022-12-07T14:52:17;5.00;99.90
7331;DHT22;3706;49.198;7.064;2022-12-07T14:54:45;5.10;99.90
7331;DHT22;3706;49.198;7.064;2022-12-07T14:57:14;5.20;99.90
7331;DHT22;3706;49.198;7.064;2022-12-07T14:59:41;5.10;99.90
7331;DHT22;3706;49.198;7.064;2022-12-07T15:02:10;5.10;99.90
7331;DHT22;3706;49.198;7.064;2022-12-07T15:04:37;5.10;99.90
7331;DHT22;3706;49.198;7.064;2022-12-07T15:07:08;5.00;99.90
7331;DHT22;3706;49.198;7.064;2022-12-07T15:09:36;5.00;99.90
7331;DHT22;3706;49.198;7.064;2022-12-07T15:12:03;4.80;99.90
7331;DHT22;3706;49.198;7.064;2022-12-07T15:14:31;4.80;99.90
7331;DHT22;3706;49.198;7.064;2022-12-07T15:16:58;4.70;99.90
7331;DHT22;3706;49.198;7.064;2022-12-07T15:19:25;4.70;99.90
7331;DHT22;3706;49.198;7.064;2022-12-07T15:21:53;4.60;99.90
7331;DHT22;3706;49.198;7.064;2022-12-07T15:24:20;4.60;99.90
7331;DHT22;3706;49.198;7.064;2022-12-07T15:26:47;4.50;99.90
7331;DHT22;3706;49.198;7.064;2022-12-07T15:29:14;4.50;99.90
7331;DHT22;3706;49.198;7.064;2022-12-07T15:31:43;4.40;99.90
7331;DHT22;3706;49.198;7.064;2022-12-07T15:34:11;4.30;99.90
7331;DHT22;3706;49.198;7.064;2022-12-07T15:36:38;4.30;99.90
7331;DHT22;3706;49.198;7.064;2022-12-07T15:39:05;4.30;99.90
7331;DHT22;3706;49.198;7.064;2022-12-07T15:41:31;4.20;99.90
7331;DHT22;3706;49.198;7.064;2022-12-07T15:43:58;4.20;99.90
7331;DHT22;3706;49.198;7.064;2022-12-07T15:46:44;4.20;99.90
7331;DHT22;3706;49.198;7.064;2022-12-07T15:49:17;4.20;99.90
7331;DHT22;3706;49.198;7.064;2022-12-07T15:51:44;4.20;99.90
7331;DHT22;3706;49.198;7.064;2022-12-07T15:54:16;4.30;99.90
7331;DHT22;3706;49.198;7.064;2022-12-07T15:56:44;4.20;99.90
7331;DHT22;3706;49.198;7.064;2022-12-07T15:59:11;4.10;99.90
7331;DHT22;3706;49.198;7.064;2022-12-07T16:01:38;4.00;99.90
7331;DHT22;3706;49.198;7.064;2022-12-07T16:04:06;3.90;99.90
7331;DHT22;3706;49.198;7.064;2022-12-07T16:06:33;3.80;99.90
7331;DHT22;3706;49.198;7.064;2022-12-07T16:09:00;3.70;99.90
7331;DHT22;3706;49.198;7.064;2022-12-07T16:11:27;3.60;99.90
7331;DHT22;3706;49.198;7.064;2022-12-07T16:13:54;3.50;99.90
7331;DHT22;3706;49.198;7.064;2022-12-07T16:16:21;3.50;99.90
7331;DHT22;3706;49.198;7.064;2022-12-07T16:18:49;3.50;99.90
7331;DHT22;3706;49.198;7.064;2022-12-07T16:21:18;3.40;99.90
7331;DHT22;3706;49.198;7.064;2022-12-07T16:23:45;3.40;99.90
7331;DHT22;3706;49.198;7.064;2022-12-07T16:26:14;3.30;99.90
7331;DHT22;3706;49.198;7.064;2022-12-07T16:28:41;3.10;99.90
7331;DHT22;3706;49.198;7.064;2022-12-07T16:31:10;3.00;99.90
7331;DHT22;3706;49.198;7.064;2022-12-07T16:33:38;2.90;99.90
7331;DHT22;3706;49.198;7.064;2022-12-07T16:36:07;2.70;99.90
7331;DHT22;3706;49.198;7.064;2022-12-07T16:38:36;2.60;99.90
7331;DHT22;3706;49.198;7.064;2022-12-07T16:41:03;2.50;99.90
7331;DHT22;3706;49.198;7.064;2022-12-07T16:43:30;2.30;99.90
7331;DHT22;3706;49.198;7.064;2022-12-07T16:45:57;2.20;99.90
7331;DHT22;3706;49.198;7.064;2022-12-07T16:48:24;2.20;99.90
7331;DHT22;3706;49.198;7.064;2022-12-07T16:50:51;2.20;99.90